createdAt,value
2018-09-21T00:01:36.920Z,32.63
2018-09-21T00:04:10.653Z,21.63
2018-09-21T00:06:40.346Z,22.13
2018-09-21T00:09:10.914Z,24.70
2018-09-21T00:11:40.046Z,25.23
2018-09-21T00:14:09.411Z,30.10
2018-09-21T00:16:38.851Z,25.27
2018-09-21T00:19:07.600Z,27.40
2018-09-21T00:21:36.279Z,28.33
2018-09-21T00:24:05.329Z,25.43
2018-09-21T00:26:34.043Z,24.80
2018-09-21T00:29:03.082Z,33.40
2018-09-21T00:31:31.808Z,23.53
2018-09-21T00:34:00.578Z,30.63
2018-09-21T00:36:29.704Z,24.73
2018-09-21T00:38:58.441Z,23.10
2018-09-21T00:41:27.172Z,24.37
2018-09-21T00:43:56.256Z,29.53
2018-09-21T00:46:25.779Z,24.67
2018-09-21T00:48:54.966Z,27.93
2018-09-21T00:51:23.784Z,23.70
2018-09-21T00:53:52.711Z,31.47
2018-09-21T00:56:21.466Z,29.57
2018-09-21T00:58:50.417Z,26.20
2018-09-21T01:01:19.753Z,29.00
2018-09-21T01:03:48.987Z,35.57
2018-09-21T01:06:18.166Z,24.00
2018-09-21T01:08:47.251Z,26.47
2018-09-21T01:11:16.044Z,21.90
2018-09-21T01:13:45.214Z,35.10
2018-09-21T01:16:14.279Z,26.90
2018-09-21T01:18:43.124Z,25.37
2018-09-21T01:21:12.191Z,29.80
2018-09-21T01:23:40.919Z,24.53
2018-09-21T01:26:10.070Z,24.97
2018-09-21T01:28:38.935Z,37.77
2018-09-21T01:31:07.699Z,25.23
2018-09-21T01:33:36.460Z,27.83
2018-09-21T01:36:05.321Z,25.07
2018-09-21T01:38:34.157Z,30.53
2018-09-21T01:41:02.969Z,27.33
2018-09-21T01:43:31.735Z,24.90
2018-09-21T01:46:00.550Z,31.33
2018-09-21T01:48:29.599Z,26.70
2018-09-21T01:50:58.943Z,26.23
2018-09-21T01:53:27.639Z,22.53
2018-09-21T01:55:56.455Z,21.40
2018-09-21T01:58:25.491Z,21.27
2018-09-21T02:00:54.875Z,32.90
2018-09-21T02:03:23.604Z,20.03
2018-09-21T02:05:53.191Z,27.23
2018-09-21T02:08:21.972Z,23.73
2018-09-21T02:10:51.004Z,32.10
2018-09-21T02:13:19.782Z,25.00
2018-09-21T02:15:48.658Z,30.60
2018-09-21T02:18:17.400Z,29.30
2018-09-21T02:20:46.514Z,24.80
2018-09-21T02:23:15.255Z,23.20
2018-09-21T02:25:44.114Z,26.60
2018-09-21T02:28:13.186Z,28.63
2018-09-21T02:30:42.289Z,20.57
2018-09-21T02:33:11.050Z,32.50
2018-09-21T02:35:39.736Z,32.40
2018-09-21T02:38:08.537Z,24.67
2018-09-21T02:40:37.383Z,22.27
2018-09-21T02:43:06.483Z,31.57
2018-09-21T02:45:35.264Z,25.27
2018-09-21T02:48:04.312Z,26.03
2018-09-21T02:50:33.376Z,21.10
2018-09-21T02:53:02.171Z,39.97
2018-09-21T02:55:31.303Z,39.00
2018-09-21T02:58:00.665Z,39.47
2018-09-21T03:00:29.805Z,22.67
2018-09-21T03:02:59.199Z,25.50
2018-09-21T03:05:28.830Z,35.23
2018-09-21T03:07:57.901Z,26.03
2018-09-21T03:10:26.968Z,22.27
2018-09-21T03:12:55.758Z,29.83
2018-09-21T03:15:24.703Z,26.73
2018-09-21T03:17:53.517Z,28.43
2018-09-21T03:20:22.641Z,27.20
2018-09-21T03:22:51.764Z,24.07
2018-09-21T03:25:20.884Z,23.40
2018-09-21T03:27:49.636Z,24.30
2018-09-21T03:30:18.685Z,21.50
2018-09-21T03:32:47.737Z,27.87
2018-09-21T03:35:16.606Z,28.83
2018-09-21T03:37:45.358Z,30.17
2018-09-21T03:40:14.328Z,23.60
2018-09-21T03:42:43.506Z,27.50
2018-09-21T03:45:12.321Z,20.80
2018-09-21T03:47:41.339Z,35.80
2018-09-21T03:50:10.143Z,24.00
2018-09-21T03:52:39.058Z,20.70
2018-09-21T03:55:08.491Z,24.10
2018-09-21T03:57:37.237Z,28.97
2018-09-21T04:00:06.924Z,25.60
2018-09-21T04:02:36.010Z,23.27
2018-09-21T04:05:06.020Z,34.00
2018-09-21T04:07:35.326Z,23.30
2018-09-21T04:10:04.127Z,31.50
2018-09-21T04:12:33.281Z,28.23
2018-09-21T04:15:02.242Z,23.60
2018-09-21T04:17:31.403Z,28.83
2018-09-21T04:20:00.391Z,27.57
2018-09-21T04:22:29.075Z,27.30
2018-09-21T04:24:58.278Z,23.10
2018-09-21T04:27:27.798Z,30.30
2018-09-21T04:29:56.593Z,42.07
2018-09-21T04:32:25.367Z,22.43
2018-09-21T04:34:54.152Z,34.53
2018-09-21T04:37:23.468Z,30.20
2018-09-21T04:39:52.270Z,28.20
2018-09-21T04:42:21.105Z,29.20
2018-09-21T04:44:50.197Z,21.73
2018-09-21T04:47:19.298Z,26.53
2018-09-21T04:49:48.013Z,19.40
2018-09-21T04:52:16.752Z,24.77
2018-09-21T04:54:45.538Z,32.10
2018-09-21T04:57:14.708Z,26.37
2018-09-21T04:59:43.438Z,28.43
2018-09-21T05:02:12.830Z,30.17
2018-09-21T05:04:41.605Z,26.50
2018-09-21T05:07:10.319Z,23.60
2018-09-21T05:09:39.123Z,18.43
2018-09-21T05:12:08.127Z,19.73
2018-09-21T05:14:36.905Z,28.17
2018-09-21T05:17:05.958Z,31.87
2018-09-21T05:19:34.748Z,27.70
2018-09-21T05:22:03.840Z,26.37
2018-09-21T05:24:32.587Z,25.37
2018-09-21T05:27:01.498Z,22.23
2018-09-21T05:29:30.260Z,32.30
2018-09-21T05:31:59.537Z,21.63
2018-09-21T05:34:28.406Z,20.17
2018-09-21T05:36:57.102Z,29.33
2018-09-21T05:39:26.168Z,24.63
2018-09-21T05:41:55.396Z,22.07
2018-09-21T05:44:24.214Z,28.30
2018-09-21T05:46:53.072Z,26.50
2018-09-21T05:49:22.530Z,27.03
2018-09-21T05:51:51.735Z,17.83
2018-09-21T05:54:20.810Z,27.43
2018-09-21T05:56:49.662Z,21.50
2018-09-21T05:59:18.693Z,21.50
2018-09-21T06:01:48.134Z,25.73
2018-09-21T06:04:17.761Z,26.80
2018-09-21T06:06:46.935Z,20.67
2018-09-21T06:09:15.954Z,20.10
2018-09-21T06:11:45.048Z,29.97
2018-09-21T06:14:14.618Z,27.90
2018-09-21T06:16:43.520Z,29.13
2018-09-21T06:19:12.537Z,33.50
2018-09-21T06:21:41.527Z,22.23
2018-09-21T06:24:10.518Z,23.33
2018-09-21T06:26:39.703Z,22.17
2018-09-21T06:29:08.866Z,22.50
2018-09-21T06:31:38.343Z,25.03
2018-09-21T06:34:07.202Z,29.33
2018-09-21T06:36:36.000Z,19.53
2018-09-21T06:39:07.279Z,45.37
2018-09-21T06:41:36.511Z,27.00
2018-09-21T06:44:05.755Z,21.03
2018-09-21T06:46:34.843Z,23.33
2018-09-21T06:49:04.261Z,21.77
2018-09-21T06:51:33.396Z,24.30
2018-09-21T06:54:02.320Z,19.23
2018-09-21T06:56:31.340Z,20.00
2018-09-21T06:59:00.094Z,22.00
2018-09-21T07:01:28.894Z,22.70
2018-09-21T07:03:57.653Z,26.33
2018-09-21T07:06:26.830Z,29.57
2018-09-21T07:08:55.652Z,20.40
2018-09-21T07:11:24.651Z,20.00
2018-09-21T07:13:53.720Z,24.60
2018-09-21T07:16:22.793Z,20.23
2018-09-21T07:18:51.618Z,19.40
2018-09-21T07:21:20.359Z,25.73
2018-09-21T07:23:49.187Z,17.37
2018-09-21T07:26:17.902Z,22.37
2018-09-21T07:28:47.086Z,19.97
2018-09-21T07:31:15.836Z,17.57
2018-09-21T07:33:44.541Z,21.07
2018-09-21T07:36:13.436Z,22.07
2018-09-21T07:38:42.554Z,24.47
2018-09-21T07:41:11.624Z,34.43
2018-09-21T07:43:40.515Z,19.43
2018-09-21T07:46:09.917Z,17.70
2018-09-21T07:48:38.714Z,22.77
2018-09-21T07:51:07.798Z,21.67
2018-09-21T07:53:36.559Z,20.00
2018-09-21T07:56:05.340Z,19.97
2018-09-21T07:58:34.492Z,19.77
2018-09-21T08:01:03.267Z,21.30
2018-09-21T08:03:32.166Z,22.27
2018-09-21T08:06:00.992Z,23.37
2018-09-21T08:08:29.753Z,18.37
2018-09-21T08:10:58.713Z,18.07
2018-09-21T08:13:27.831Z,21.80
2018-09-21T08:15:56.743Z,17.30
2018-09-21T08:18:26.015Z,26.37
2018-09-21T08:20:55.150Z,17.50
2018-09-21T08:23:24.011Z,18.20
2018-09-21T08:25:52.844Z,22.90
2018-09-21T08:28:23.052Z,16.07
2018-09-21T08:30:51.864Z,16.57
2018-09-21T08:33:21.053Z,15.77
2018-09-21T08:35:49.870Z,22.93
2018-09-21T08:38:18.635Z,15.87
2018-09-21T08:40:47.542Z,19.67
2018-09-21T08:43:16.543Z,22.23
2018-09-21T08:45:45.451Z,20.73
2018-09-21T08:48:14.263Z,20.33
2018-09-21T08:50:43.207Z,20.73
2018-09-21T08:53:12.213Z,21.30
2018-09-21T08:55:41.386Z,16.47
2018-09-21T08:58:10.171Z,23.80
2018-09-21T09:00:39.707Z,21.63
2018-09-21T09:03:08.539Z,22.63
2018-09-21T09:05:37.332Z,16.97
2018-09-21T09:08:06.079Z,39.50
2018-09-21T09:10:34.802Z,22.07
2018-09-21T09:13:04.006Z,39.13
2018-09-21T09:15:33.329Z,23.20
2018-09-21T09:18:02.159Z,21.77
2018-09-21T09:20:31.159Z,28.67
2018-09-21T09:23:00.289Z,30.37
2018-09-21T09:25:29.027Z,19.50
2018-09-21T09:27:57.882Z,18.60
2018-09-21T09:30:27.059Z,33.50
2018-09-21T09:32:55.997Z,23.20
2018-09-21T09:35:25.035Z,28.70
2018-09-21T09:37:54.145Z,20.40
2018-09-21T09:40:23.555Z,30.80
2018-09-21T09:42:52.706Z,16.70
2018-09-21T09:45:21.672Z,24.53
2018-09-21T09:47:50.830Z,25.00
2018-09-21T09:50:19.982Z,46.57
2018-09-21T09:52:48.854Z,45.93
2018-09-21T09:55:18.125Z,14.23
2018-09-21T09:57:47.165Z,22.43
2018-09-21T10:00:20.109Z,23.10
2018-09-21T10:02:49.169Z,17.40
2018-09-21T10:05:17.943Z,16.60
2018-09-21T10:07:46.792Z,23.83
2018-09-21T10:10:15.590Z,18.30
2018-09-21T10:12:44.402Z,20.93
2018-09-21T10:15:13.436Z,27.30
2018-09-21T10:17:42.507Z,31.80
2018-09-21T10:20:11.771Z,14.13
2018-09-21T10:22:40.598Z,24.07
2018-09-21T10:25:09.752Z,23.63
2018-09-21T10:27:38.721Z,22.37
2018-09-21T10:30:07.411Z,26.40
2018-09-21T10:32:36.852Z,35.17
2018-09-21T10:35:05.956Z,27.73
2018-09-21T10:37:34.757Z,36.80
2018-09-21T10:40:03.588Z,20.67
2018-09-21T10:42:32.610Z,25.77
2018-09-21T10:45:01.699Z,23.00
2018-09-21T10:47:30.524Z,23.97
2018-09-21T10:49:59.791Z,16.37
2018-09-21T10:52:28.610Z,22.30
2018-09-21T10:54:57.965Z,24.70
2018-09-21T10:57:26.798Z,18.70
2018-09-21T10:59:55.663Z,25.13
2018-09-21T11:02:24.468Z,15.80
2018-09-21T11:04:55.226Z,25.17
2018-09-21T11:07:24.390Z,25.07
2018-09-21T11:09:53.478Z,27.53
2018-09-21T11:12:22.299Z,19.80
2018-09-21T11:14:51.668Z,35.90
2018-09-21T11:17:20.643Z,19.53
2018-09-21T11:19:50.320Z,18.67
2018-09-21T11:22:19.153Z,28.27
2018-09-21T11:24:48.369Z,37.80
2018-09-21T11:27:17.287Z,27.50
2018-09-21T11:29:46.185Z,23.90
2018-09-21T11:32:15.003Z,39.20
2018-09-21T11:34:44.202Z,23.40
2018-09-21T11:37:13.149Z,24.00
2018-09-21T11:39:42.235Z,26.47
2018-09-21T11:42:11.358Z,29.30
2018-09-21T11:44:40.133Z,29.50
2018-09-21T11:47:09.600Z,23.07
2018-09-21T11:49:38.255Z,33.87
2018-09-21T11:52:07.326Z,26.60
2018-09-21T11:54:36.071Z,48.53
2018-09-21T11:57:05.092Z,32.73
2018-09-21T11:59:33.921Z,41.60
2018-09-21T12:02:02.830Z,37.50
2018-09-21T12:04:31.597Z,29.63
2018-09-21T12:07:00.971Z,30.17
2018-09-21T12:09:29.744Z,21.10
2018-09-21T12:11:58.880Z,38.93
2018-09-21T12:14:27.698Z,34.90
2018-09-21T12:16:56.476Z,22.63
2018-09-21T12:19:25.350Z,25.67
2018-09-21T12:21:54.588Z,27.00
2018-09-21T12:24:23.630Z,23.93
2018-09-21T12:26:52.784Z,27.60
2018-09-21T12:29:22.037Z,41.17
2018-09-21T12:31:51.157Z,25.63
2018-09-21T12:34:20.027Z,25.70
2018-09-21T12:36:49.119Z,26.17
2018-09-21T12:39:18.032Z,24.70
2018-09-21T12:41:47.294Z,28.07
2018-09-21T12:44:17.850Z,54.20
2018-09-21T12:46:47.773Z,43.23
2018-09-21T12:49:16.540Z,39.30
2018-09-21T12:51:45.312Z,38.60
2018-09-21T12:54:14.744Z,34.73
2018-09-21T12:56:44.467Z,62.93
2018-09-21T12:59:13.183Z,31.63
2018-09-21T13:01:42.433Z,45.97
2018-09-21T13:04:11.953Z,45.73
2018-09-21T13:06:41.045Z,33.67
2018-09-21T13:09:09.921Z,41.90
2018-09-21T13:11:39.118Z,23.10
2018-09-21T13:14:08.121Z,40.73
2018-09-21T13:16:36.919Z,27.07
2018-09-21T13:19:06.025Z,25.77
2018-09-21T13:21:36.525Z,41.00
2018-09-21T13:24:06.298Z,49.87
2018-09-21T13:26:35.402Z,39.23
2018-09-21T13:29:04.541Z,32.50
2018-09-21T13:31:36.275Z,39.30
2018-09-21T13:34:05.091Z,18.30
2018-09-21T13:36:33.918Z,31.47
2018-09-21T13:39:02.960Z,38.80
2018-09-21T13:41:31.727Z,26.83
2018-09-21T13:44:00.561Z,32.37
2018-09-21T13:46:29.344Z,32.13
2018-09-21T13:48:58.134Z,26.20
2018-09-21T13:51:26.943Z,31.40
2018-09-21T13:53:57.359Z,30.83
2018-09-21T13:56:27.330Z,24.70
2018-09-21T13:58:56.633Z,22.03
2018-09-21T14:01:26.841Z,27.97
2018-09-21T14:03:56.266Z,26.60
2018-09-21T14:06:25.175Z,40.33
2018-09-21T14:08:54.156Z,24.47
2018-09-21T14:11:22.940Z,47.80
2018-09-21T14:13:52.157Z,46.70
2018-09-21T14:16:21.165Z,35.13
2018-09-21T14:18:50.015Z,29.30
2018-09-21T14:21:18.897Z,29.50
2018-09-21T14:23:48.328Z,28.20
2018-09-21T14:26:17.365Z,30.37
2018-09-21T14:28:46.392Z,27.60
2018-09-21T14:31:15.126Z,25.53
2018-09-21T14:33:43.936Z,22.40
2018-09-21T14:36:13.151Z,26.60
2018-09-21T14:38:42.242Z,25.17
2018-09-21T14:41:11.279Z,96.57
2018-09-21T14:43:39.988Z,119.63
2018-09-21T14:46:16.308Z,101.10
2018-09-21T14:48:48.846Z,93.33
2018-09-21T14:51:18.506Z,97.10
2018-09-21T14:53:47.353Z,62.10
2018-09-21T14:56:24.477Z,92.13
2018-09-21T14:59:00.321Z,68.77
2018-09-21T15:01:35.112Z,70.10
2018-09-21T15:04:04.424Z,48.30
2018-09-21T15:06:33.783Z,29.80
2018-09-21T15:09:02.519Z,38.63
2018-09-21T15:11:31.486Z,33.20
2018-09-21T15:14:00.829Z,27.40
2018-09-21T15:16:29.693Z,17.70
2018-09-21T15:18:58.799Z,13.80
2018-09-21T15:21:27.990Z,16.13
2018-09-21T15:23:57.409Z,12.60
2018-09-21T15:26:26.323Z,16.87
2018-09-21T15:28:55.740Z,14.90
2018-09-21T15:31:24.824Z,13.20
2018-09-21T15:33:53.583Z,15.43
2018-09-21T15:36:22.611Z,20.00
2018-09-21T15:38:52.319Z,15.67
2018-09-21T15:41:21.293Z,13.60
2018-09-21T15:43:50.147Z,19.20
2018-09-21T15:46:19.339Z,12.60
2018-09-21T15:48:49.014Z,12.00
2018-09-21T15:51:18.167Z,9.57
2018-09-21T15:53:47.087Z,12.53
2018-09-21T15:56:16.306Z,13.07
2018-09-21T15:58:45.561Z,11.10
2018-09-21T16:01:14.994Z,17.93
2018-09-21T16:03:49.747Z,13.13
2018-09-21T16:06:19.294Z,15.10
2018-09-21T16:08:49.323Z,11.40
2018-09-21T16:11:19.424Z,11.50
2018-09-21T16:13:52.200Z,13.90
2018-09-21T16:16:21.309Z,17.97
2018-09-21T16:18:50.272Z,13.73
2018-09-21T16:21:19.222Z,17.63
2018-09-21T16:23:48.118Z,11.33
2018-09-21T16:26:17.621Z,21.20
2018-09-21T16:28:46.526Z,13.40
2018-09-21T16:31:15.396Z,15.23
2018-09-21T16:33:44.237Z,15.73
2018-09-21T16:36:13.022Z,15.00
2018-09-21T16:38:42.578Z,10.90
2018-09-21T16:41:11.673Z,11.73
2018-09-21T16:43:41.430Z,14.40
2018-09-21T16:46:10.596Z,12.97
2018-09-21T16:48:39.434Z,13.40
2018-09-21T16:51:08.203Z,14.23
2018-09-21T16:53:37.004Z,14.67
2018-09-21T16:56:05.879Z,16.57
2018-09-21T16:58:34.637Z,16.43
2018-09-21T17:01:03.859Z,16.30
2018-09-21T17:03:32.865Z,13.50
2018-09-21T17:06:01.889Z,14.73
2018-09-21T17:08:30.854Z,11.03
2018-09-21T17:10:59.808Z,13.63
2018-09-21T17:13:29.131Z,19.20
2018-09-21T17:15:58.547Z,11.37
2018-09-21T17:18:27.551Z,13.10
2018-09-21T17:20:56.794Z,10.57
2018-09-21T17:23:25.725Z,12.20
2018-09-21T17:25:54.794Z,15.23
2018-09-21T17:28:24.787Z,16.23
2018-09-21T17:30:54.729Z,18.07
2018-09-21T17:33:23.710Z,20.20
2018-09-21T17:35:52.829Z,15.10
2018-09-21T17:38:21.896Z,17.23
2018-09-21T17:40:50.689Z,12.43
2018-09-21T17:43:19.506Z,17.73
2018-09-21T17:45:48.629Z,14.93
2018-09-21T17:48:18.172Z,16.47
2018-09-21T17:50:47.000Z,16.23
2018-09-21T17:53:15.773Z,15.30
2018-09-21T17:55:44.529Z,12.30
2018-09-21T17:58:13.588Z,18.60
2018-09-21T18:00:43.362Z,20.83
2018-09-21T18:03:12.208Z,18.33
2018-09-21T18:05:41.039Z,22.63
2018-09-21T18:08:09.852Z,16.43
2018-09-21T18:10:38.763Z,21.20
2018-09-21T18:13:07.801Z,14.87
2018-09-21T18:15:37.495Z,21.47
2018-09-21T18:18:06.960Z,16.60
2018-09-21T18:20:35.913Z,26.43
2018-09-21T18:23:06.955Z,19.27
2018-09-21T18:25:36.204Z,19.60
2018-09-21T18:28:05.989Z,22.93
2018-09-21T18:30:35.002Z,16.80
2018-09-21T18:33:03.953Z,16.80
2018-09-21T18:35:33.601Z,15.80
2018-09-21T18:38:04.553Z,13.00
2018-09-21T18:40:33.814Z,17.73
2018-09-21T18:43:03.319Z,16.23
2018-09-21T18:45:32.545Z,16.40
2018-09-21T18:48:01.727Z,20.17
2018-09-21T18:50:31.519Z,18.70
2018-09-21T18:53:00.770Z,19.73
2018-09-21T18:55:31.725Z,18.47
2018-09-21T18:58:02.232Z,18.70
2018-09-21T19:00:32.354Z,20.57
2018-09-21T19:03:03.090Z,21.00
2018-09-21T19:05:32.910Z,17.60
2018-09-21T19:08:02.859Z,18.80
2018-09-21T19:10:31.950Z,19.17
2018-09-21T19:13:01.509Z,19.00
2018-09-21T19:15:30.458Z,17.23
2018-09-21T19:17:59.549Z,17.60
2018-09-21T19:20:28.591Z,18.87
2018-09-21T19:22:57.486Z,14.50
2018-09-21T19:25:26.471Z,14.57
2018-09-21T19:27:56.816Z,25.33
2018-09-21T19:30:26.035Z,14.53
2018-09-21T19:32:55.862Z,15.33
2018-09-21T19:35:24.863Z,15.90
2018-09-21T19:37:54.426Z,16.53
2018-09-21T19:40:23.242Z,17.27
2018-09-21T19:42:55.124Z,17.17
2018-09-21T19:45:23.985Z,15.30
2018-09-21T19:47:53.116Z,12.00
2018-09-21T19:50:23.392Z,19.83
2018-09-21T19:52:52.761Z,14.63
2018-09-21T19:55:22.325Z,19.60
2018-09-21T19:57:51.122Z,20.63
2018-09-21T20:00:20.310Z,14.17
2018-09-21T20:02:49.413Z,15.23
2018-09-21T20:05:18.507Z,17.67
2018-09-21T20:07:47.312Z,14.23
2018-09-21T20:10:16.994Z,29.50
2018-09-21T20:12:45.851Z,14.87
2018-09-21T20:15:14.609Z,14.33
2018-09-21T20:17:43.825Z,24.17
2018-09-21T20:20:12.767Z,26.67
2018-09-21T20:22:42.050Z,11.90
2018-09-21T20:25:11.404Z,17.57
2018-09-21T20:27:40.491Z,18.27
2018-09-21T20:30:14.318Z,15.37
2018-09-21T20:32:48.136Z,20.67
2018-09-21T20:35:18.763Z,20.50
2018-09-21T20:37:47.541Z,22.40
2018-09-21T20:40:16.896Z,23.70
2018-09-21T20:42:45.817Z,23.33
2018-09-21T20:45:14.570Z,37.97
2018-09-21T20:47:43.610Z,31.93
2018-09-21T20:50:12.363Z,26.03
2018-09-21T20:52:41.731Z,24.60
2018-09-21T20:55:10.890Z,28.60
2018-09-21T20:57:40.015Z,20.07
2018-09-21T21:00:08.941Z,34.50
2018-09-21T21:02:38.082Z,17.10
2018-09-21T21:05:07.305Z,18.50
2018-09-21T21:07:36.091Z,16.90
2018-09-21T21:10:05.018Z,29.70
2018-09-21T21:12:33.878Z,16.47
2018-09-21T21:15:02.751Z,17.43
2018-09-21T21:17:31.530Z,20.40
2018-09-21T21:20:00.719Z,16.57
2018-09-21T21:22:29.790Z,15.27
2018-09-21T21:24:58.641Z,13.57
2018-09-21T21:27:27.839Z,13.77
2018-09-21T21:29:56.936Z,12.10
2018-09-21T21:32:26.084Z,16.33
2018-09-21T21:34:55.612Z,21.43
2018-09-21T21:37:24.741Z,14.03
2018-09-21T21:39:53.475Z,14.03
2018-09-21T21:42:22.551Z,13.83
2018-09-21T21:44:51.397Z,13.40
2018-09-21T21:47:20.167Z,15.13
2018-09-21T21:49:49.272Z,12.77
2018-09-21T21:52:18.598Z,14.20
2018-09-21T21:54:47.791Z,16.50
2018-09-21T21:57:16.559Z,25.10
2018-09-21T21:59:45.886Z,19.47
2018-09-21T22:02:14.738Z,14.50
2018-09-21T22:04:43.887Z,12.00
2018-09-21T22:07:13.290Z,16.17
2018-09-21T22:09:42.086Z,14.80
2018-09-21T22:12:16.202Z,13.57
2018-09-21T22:14:44.955Z,24.80
2018-09-21T22:17:13.741Z,14.33
2018-09-21T22:19:45.726Z,14.43
2018-09-21T22:22:14.937Z,15.60
2018-09-21T22:24:43.674Z,11.33
2018-09-21T22:27:12.580Z,13.00
2018-09-21T22:29:41.543Z,10.77
2018-09-21T22:32:10.594Z,17.47
2018-09-21T22:34:39.643Z,12.80
2018-09-21T22:37:14.698Z,13.03
2018-09-21T22:39:43.785Z,16.13
2018-09-21T22:42:12.674Z,13.40
2018-09-21T22:44:41.464Z,15.63
2018-09-21T22:47:10.484Z,12.60
2018-09-21T22:49:39.576Z,10.43
2018-09-21T22:52:08.397Z,16.70
2018-09-21T22:54:37.190Z,19.10
2018-09-21T22:57:05.958Z,12.27
2018-09-21T22:59:34.763Z,18.80
2018-09-21T23:02:04.645Z,12.20
2018-09-21T23:04:33.500Z,17.27
2018-09-21T23:07:02.886Z,17.13
2018-09-21T23:09:31.755Z,15.10
2018-09-21T23:12:00.819Z,14.80
2018-09-21T23:14:29.641Z,15.90
2018-09-21T23:16:58.422Z,12.13
2018-09-21T23:19:27.241Z,12.43
2018-09-21T23:21:56.135Z,17.03
2018-09-21T23:24:25.145Z,12.83
2018-09-21T23:26:54.805Z,13.87
2018-09-21T23:29:23.636Z,14.43
2018-09-21T23:31:52.759Z,16.00
2018-09-21T23:34:21.647Z,14.57
2018-09-21T23:36:50.524Z,13.83
2018-09-21T23:39:19.282Z,14.27
2018-09-21T23:41:48.035Z,16.10
2018-09-21T23:44:17.363Z,14.87
2018-09-21T23:46:46.082Z,12.30
2018-09-21T23:49:14.838Z,14.27
2018-09-21T23:51:43.655Z,10.33
2018-09-21T23:54:12.522Z,11.10
2018-09-21T23:56:41.277Z,16.87
2018-09-21T23:59:10.039Z,12.30
